Lexington Weather

Lexington, Massachusetts, USA

30°F
4/1/2020 3:27am 
  • Lexington Conditions: Clear
  • Temperature: 29.5°F / -1.4°CColder 0.3°F than last hour.
  • Dew Point: 27.5°FDecreased 0.4°Fsince last hour.
  • Relative Humidity: 92
  • Wind: Wind from ESE ESE 1 mph, 10-min avg: 1 mph, gust: 2 mph
  • Barometer: 29.89 in Steady
  • Visibility: 10 miles
  • Snow Today: 0.0 in
  •   

Nearby Reports - Official Weather Stations - Current Conditions

Data from the National Weather Service

KBED - Bedford, MA


Distance from station: WNW 4mi, 6km

Updated Wed Apr 1, 2020 2:51am EDT

Clear

Clear

Wind from WNW

Wind:

WNW 3 mph, 6 km/h

Temperature: 28°F (-2°C)

Dew Point: 25°F (-4°C)

Humidity: 86%

Barometer: 29.91 in (1012.9 hPa)

Clouds: Clear

Visibility: 10 miles (16 km)


2020/04/01 06:51 KBED 010651Z AUTO 30003KT 10SM CLR M02/M04 A2991 RMK AO2 SLP143 I1001 T10221044

KBOS - Boston, MA


Distance from station: ESE 12mi, 20km

Updated Wed Apr 1, 2020 2:54am EDT

Few Clouds

Few Clouds

Wind from NW

Wind:

NW 8 mph, 13 km/h

Temperature: 32°F (0°C)

Wind Chill: 25°F (-4°C)

Dew Point: 27°F (-3°C)

Humidity: 80%

Barometer: 29.92 in (1013.2 hPa)

Clouds: Few Clouds

Visibility: 10 miles (16 km)

Cloud details: Few Clouds 25000 ft


2020/04/01 06:54 KBOS 010654Z 31007KT 10SM FEW250 00/M03 A2992 RMK AO2 SLP129 T00001033

KMQE - East Milton, MA


Distance from station: SSE 17mi, 27km

Updated Wed Apr 1, 2020 2:51am EDT

Wind from NNW

Wind:

NNW 9 mph, 15 km/h

Temperature: 28°F (-2°C)

Wind Chill: 19°F (-7°C)

Dew Point: 27°F (-3°C)

Humidity: 93%

Barometer: 29.87 in (1011.5 hPa)


2020/04/01 06:51 KMQE 010651Z AUTO 34008KT M02/M03 A2987 RMK AO1 SLP132 T10171033

KOWD - Norwood, MA


Distance from station: SSE 18mi, 29km

Updated Wed Apr 1, 2020 3:12am EDT

Mostly cloudy

Mostly cloudy

Wind from calm

Wind:

Calm

Temperature: 28°F (-2°C)

Dew Point: 25°F (-4°C)

Humidity: 86%

Barometer: 29.92 in (1013.2 hPa)

Clouds: Mostly cloudy

Visibility: 10 miles (16 km)

Cloud details: Partly cloudy 2200 ft
Mostly cloudy 2800 ft


2020/04/01 07:12 KOWD 010712Z AUTO 00000KT 10SM SCT022 BKN028 M02/M04 A2992 RMK AO2 T10171039

KBVY - Beverly, MA


Distance from station: ENE 19mi, 31km

Updated Wed Apr 1, 2020 2:53am EDT

Clear

Clear

Wind from NW

Wind:

NW 5 mph, 7 km/h

Temperature: 28°F (-2°C)

Wind Chill: 22°F (-6°C)

Dew Point: 25°F (-4°C)

Humidity: 86%

Barometer: 29.90 in (1012.5 hPa)

Clouds: Clear

Visibility: 10 miles (16 km)


2020/04/01 06:53 KBVY 010653Z AUTO 32004KT 10SM CLR M02/M04 A2990 RMK AO2 SLP124 I1000 T10171039

KLWM - Lawrence, MA


Distance from station: NNE 20mi, 32km

Updated Wed Apr 1, 2020 2:54am EDT

Clear

Clear

Wind from calm

Wind:

Calm

Temperature: 28°F (-2°C)

Dew Point: 27°F (-3°C)

Humidity: 93%

Barometer: 29.93 in (1013.5 hPa)

Clouds: Clear

Visibility: 10 miles (16 km)


2020/04/01 06:54 KLWM 010654Z AUTO 00000KT 10SM CLR M02/M03 A2993 RMK AO2 SLP136 T10171033

KFIT - Fitchburg, MA


Distance from station: WNW 27mi, 44km

Updated Wed Apr 1, 2020 2:52am EDT

Clear

Clear

Wind from NW

Wind:

NW 3 mph, 6 km/h

Temperature: 27°F (-3°C)

Dew Point: 25°F (-4°C)

Humidity: 93%

Barometer: 29.92 in (1013.2 hPa)

Clouds: Clear

Visibility: 10 miles (16 km)


2020/04/01 06:52 KFIT 010652Z AUTO 32003KT 10SM CLR M03/M04 A2992 RMK AO2 SLP137 T10281044

KASH - Nashua/Boire Fld, NH


Distance from station: NNW 28mi, 44km

Updated Wed Apr 1, 2020 2:56am EDT

Clear

Clear

Wind from WNW

Wind:

WNW 6 mph, 9 km/h

Temperature: 28°F (-2°C)

Wind Chill: 21°F (-6°C)

Dew Point: 28°F (-2°C)

Humidity: 100%

Barometer: 29.92 in (1013.2 hPa)

Clouds: Clear

Visibility: 10 miles (16 km)


2020/04/01 06:56 KASH 010656Z AUTO 30005KT 10SM CLR M02/M02 A2992 RMK AO2 SLP139 T10171017

KORH - Worcester, MA


Distance from station: WSW 34mi, 55km

Updated Wed Apr 1, 2020 2:54am EDT

Clear

Clear

Wind from NNW

Wind:

NNW 3 mph, 6 km/h

Temperature: 28°F (-2°C)

Dew Point: 25°F (-4°C)

Humidity: 86%

Barometer: 29.88 in (1011.9 hPa)

Clouds: Clear

Visibility: 10 miles (16 km)


2020/04/01 06:54 KORH 010654Z AUTO 33003KT 10SM CLR M02/M04 A2988 RMK AO2 SLP129 T10171044

KMHT - Manchester, NH


Distance from station: NNW 35mi, 57km

Updated Wed Apr 1, 2020 2:53am EDT

Few Clouds

Few Clouds

Wind from calm

Wind:

Calm

Temperature: 30°F (-1°C)

Dew Point: 27°F (-3°C)

Humidity: 86%

Barometer: 29.91 in (1012.9 hPa)

Clouds: Few Clouds

Visibility: 10 miles (16 km)

Cloud details: Few Clouds 25000 ft


2020/04/01 06:53 KMHT 010653Z 00000KT 10SM FEW250 M01/M03 A2991 RMK AO2 SLP145 T10061028

KGHG - Marshfield, MA


Distance from station: SE 38mi, 60km

Updated Wed Apr 1, 2020 2:55am EDT

Overcast

Overcast

Wind from WNW

Wind:

WNW 5 mph, 7 km/h

Temperature: 36°F (2°C)

Wind Chill: 32°F (0°C)

Dew Point: 34°F (1°C)

Humidity: 93%

Barometer: 29.90 in (1012.5 hPa)

Clouds: Overcast

Visibility: 10 miles (16 km)

Cloud details: Overcast 1500 ft


2020/04/01 06:55 KGHG 010655Z AUTO 30004KT 10SM OVC015 02/01 A2990 RMK AO2

KSFZ - Pawtucket, RI


Distance from station: SSW 39mi, 62km

Updated Wed Apr 1, 2020 2:56am EDT

Clear

Clear

Wind from N

Wind:

N 7 mph, 11 km/h

Temperature: 27°F (-3°C)

Wind Chill: 19°F (-7°C)

Dew Point: 25°F (-4°C)

Humidity: 93%

Barometer: 29.89 in (1012.2 hPa)

Clouds: Clear

Visibility: 10 miles (16 km)


2020/04/01 06:56 KSFZ 010656Z AUTO 01006KT 10SM CLR M03/M04 A2989 RMK AO2 SLP073 T10281039 FZRANO

KTAN - Taunton, MA


Distance from station: SSE 40mi, 65km

Updated Wed Apr 1, 2020 3:10am EDT

Overcast

Overcast

Wind from calm

Wind:

Calm

Temperature: 30°F (-1°C)

Dew Point: 28°F (-2°C)

Humidity: 93%

Barometer: 29.90 in (1012.5 hPa)

Clouds: Overcast

Visibility: 10 miles (16 km)

Cloud details: Few Clouds 1800 ft
Overcast 3000 ft


2020/04/01 07:10 KTAN 010710Z AUTO 00000KT 10SM FEW018 OVC030 M01/M02 A2990 RMK AO2 T10111022

KPYM - Plymouth, MA


Distance from station: SE 44mi, 72km

Updated Wed Apr 1, 2020 2:52am EDT

Overcast

Overcast

Wind from WNW

Wind:

WNW 3 mph, 6 km/h

Temperature: 30°F (-1°C)

Dew Point: 28°F (-2°C)

Humidity: 93%

Barometer: 29.88 in (1011.9 hPa)

Clouds: Overcast

Visibility: 10 miles (16 km)

Cloud details: Partly cloudy 1500 ft
Mostly cloudy 2200 ft
Overcast 3000 ft


2020/04/01 06:52 KPYM 010652Z AUTO 30003KT 10SM SCT015 BKN022 OVC030 M01/M02 A2988 RMK AO2 SLP121 T10061017

KAFN - Jaffrey, NH


Distance from station: WNW 46mi, 74km

Updated Wed Apr 1, 2020 2:52am EDT

Clear

Clear

Wind from calm

Wind:

Calm

Temperature: 28°F (-2°C)

Dew Point: 27°F (-3°C)

Humidity: 93%

Barometer: 29.89 in (1012.2 hPa)

Clouds: Clear

Visibility: 10 miles (16 km)


2020/04/01 06:52 KAFN 010652Z AUTO 00000KT 10SM CLR M02/M03 A2989 RMK AO2 SLP137 I1001 T10221028

KPSM - Portsmouth/Pease, NH


Distance from station: NNE 48mi, 78km

Updated Wed Apr 1, 2020 2:56am EDT

Clear

Clear

Wind from NW

Wind:

NW 5 mph, 7 km/h

Temperature: 28°F (-2°C)

Wind Chill: 22°F (-6°C)

Dew Point: 27°F (-3°C)

Humidity: 93%

Barometer: 29.90 in (1012.5 hPa)

Clouds: Clear

Visibility: 10 miles (16 km)


2020/04/01 06:56 KPSM 010656Z 32004KT 10SM CLR M02/M03 A2990 RMK AO2A SLP129 T10231033

KPVD - Providence/Green, RI


Distance from station: S 51mi, 82km

Updated Wed Apr 1, 2020 2:51am EDT

Clear

Clear

Wind from N

Wind:

N 8 mph, 13 km/h

Temperature: 32°F (0°C)

Wind Chill: 25°F (-4°C)

Dew Point: 27°F (-3°C)

Humidity: 80%

Barometer: 29.90 in (1012.5 hPa)

Clouds: Clear

Visibility: 10 miles (16 km)


2020/04/01 06:51 KPVD 010651Z AUTO 35007KT 10SM CLR 00/M03 A2990 RMK AO2 SLP127 T00001028

KCON - Concord, NH


Distance from station: NNW 54mi, 87km

Updated Wed Apr 1, 2020 2:51am EDT

Clear

Clear

Wind from calm

Wind:

Calm

Temperature: 27°F (-3°C)

Dew Point: 21°F (-6°C)

Humidity: 80%

Barometer: 29.92 in (1013.2 hPa)

Clouds: Clear

Visibility: 10 miles (16 km)


2020/04/01 06:51 KCON 010651Z AUTO 00000KT 10SM CLR M03/M06 A2992 RMK AO2 SLP135 I1001 T10331056

KEWB - New Bedford, MA


Distance from station: SSE 54mi, 87km

Updated Wed Apr 1, 2020 2:53am EDT

Mostly cloudy

Mostly cloudy

Wind from NNW

Wind:

NNW 5 mph, 7 km/h

Temperature: 28°F (-2°C)

Wind Chill: 22°F (-6°C)

Dew Point: 28°F (-2°C)

Humidity: 100%

Barometer: 29.88 in (1011.9 hPa)

Clouds: Mostly cloudy

Visibility: 10 miles (16 km)

Cloud details: Few Clouds 2400 ft
Mostly cloudy 3100 ft


2020/04/01 06:53 KEWB 010653Z AUTO 34004KT 10SM FEW024 BKN031 M02/M02 A2988 RMK AO2 SLP119 T10171022

KCEF - Chicopee/Westover, Massachusetts, USA


Distance from station: WSW 67mi, 108km

Updated Wed Apr 1, 2020 2:56am EDT

Overcast

Overcast

Wind from calm

Wind:

Calm

Temperature: 32°F (0°C)

Dew Point: 28°F (-2°C)

Humidity: 87%

Barometer: 29.91 in (1012.9 hPa)

Clouds: Overcast

Visibility: 10 miles (16 km)

Cloud details: Overcast 4900 ft


2020/04/01 06:56 KCEF 010656Z AUTO 00000KT 10SM OVC049 00/M02 A2991 RMK AO2 SLP136 T00021025

KMWN - Mount Washington, NH


Distance from station: N 126mi, 203km

Updated Wed Apr 1, 2020 2:54am EDT

Clear

Clear

Wind from N

Wind:

N 12 mph, 19 km/h

Temperature: 16°F (-9°C)

Wind Chill: 3°F (-16°C)

Dew Point: -0°F (-18°C)

Humidity: 48%

Clouds: Clear

Visibility: 90 miles (144 km)


2020/04/01 06:54 KMWN 010654Z 35010KT 90SM SKC M09/M18 RMK